Opmeer, Netherlands
Current Conditions -  °F | °C
As of 5:25 AM on Thursday 27 Nov 2014 (Local Time) from EHKD Reporting Station
Haze Haze  
Wind Chill: 37°   Ceiling: 100
Heat Index: 43°   Visibility: 0.93mi
Dew Point: 43°   Wind: 10mph
Humidity: 100%   Direction: 140°SE
Pressure: 29.77"   Gusts: NA
Location:  52.71°N, 4.94°E
Report Text: EHKD 270425Z AUTO 14009KT 1500 R21/1000 BR BKN001 06/06 Q1008 RED
Loading
Personal Weather Stations






























Interactive Weather Map New forecast layout! Learn more

10-Day Weather Forecast

Advertisements
Track Severe Weather on mobile